createdAt,value
2023-02-28T00:01:30.476Z,9.85
2023-02-28T00:03:57.576Z,13.52
2023-02-28T00:06:25.233Z,12.23
2023-02-28T00:08:51.990Z,11.05
2023-02-28T00:11:18.703Z,10.10
2023-02-28T00:13:47.423Z,10.57
2023-02-28T00:16:18.236Z,11.05
2023-02-28T00:18:45.478Z,9.73
2023-02-28T00:21:12.127Z,9.90
2023-02-28T00:23:38.892Z,6.72
2023-02-28T00:26:05.975Z,7.28
2023-02-28T00:28:32.686Z,8.02
2023-02-28T00:31:00.964Z,10.10
2023-02-28T00:33:28.506Z,8.35
2023-02-28T00:36:06.870Z,7.30
2023-02-28T00:38:33.599Z,6.57
2023-02-28T00:41:05.287Z,8.77
2023-02-28T00:43:33.920Z,6.25
2023-02-28T00:46:00.761Z,5.10
2023-02-28T00:48:27.421Z,7.97
2023-02-28T00:50:54.686Z,4.55
2023-02-28T00:53:21.609Z,4.15
2023-02-28T00:55:49.041Z,7.72
2023-02-28T00:58:15.738Z,5.25
2023-02-28T01:00:42.404Z,3.78
2023-02-28T01:03:09.086Z,4.70
2023-02-28T01:05:35.753Z,6.57
2023-02-28T01:08:02.407Z,8.63
2023-02-28T01:10:32.163Z,8.98
2023-02-28T01:12:59.163Z,5.55
2023-02-28T01:15:26.104Z,7.20
2023-02-28T01:17:52.814Z,4.32
2023-02-28T01:20:19.635Z,5.80
2023-02-28T01:22:46.685Z,5.93
2023-02-28T01:25:13.790Z,6.85
2023-02-28T01:27:40.506Z,6.85
2023-02-28T01:30:10.950Z,5.63
2023-02-28T01:32:37.636Z,5.20
2023-02-28T01:35:04.613Z,4.60
2023-02-28T01:37:31.266Z,3.58
2023-02-28T01:39:57.927Z,4.25
2023-02-28T01:42:24.644Z,9.10
2023-02-28T01:45:23.554Z,7.40
2023-02-28T01:47:53.496Z,6.43
2023-02-28T01:50:24.123Z,6.38
2023-02-28T01:52:52.914Z,5.18
2023-02-28T01:55:21.336Z,5.60
2023-02-28T01:58:08.295Z,6.35
2023-02-28T02:00:53.175Z,5.47
2023-02-28T02:03:38.108Z,8.27
2023-02-28T02:06:05.200Z,6.53
2023-02-28T02:08:31.943Z,4.70
2023-02-28T02:11:03.918Z,5.30
2023-02-28T02:13:42.854Z,6.38
2023-02-28T02:16:24.751Z,4.25
2023-02-28T02:18:59.485Z,8.18
2023-02-28T02:21:58.425Z,7.10
2023-02-28T02:24:51.023Z,14.10
2023-02-28T02:27:38.914Z,6.22
2023-02-28T02:30:15.374Z,8.23
2023-02-28T02:33:21.400Z,6.22
2023-02-28T02:36:00.158Z,6.05
2023-02-28T02:39:07.771Z,4.65
2023-02-28T02:41:54.372Z,4.88
2023-02-28T02:44:29.701Z,5.03
2023-02-28T02:47:03.746Z,7.32
2023-02-28T02:49:33.125Z,3.88
2023-02-28T02:52:06.648Z,6.13
2023-02-28T02:54:59.294Z,5.13
2023-02-28T02:57:33.920Z,4.47
2023-02-28T03:00:02.579Z,4.47
2023-02-28T03:02:35.068Z,5.65
2023-02-28T03:05:24.848Z,5.10
2023-02-28T03:07:51.581Z,4.25
2023-02-28T03:10:28.956Z,7.57
2023-02-28T03:13:07.726Z,4.55
2023-02-28T03:15:51.989Z,5.30
2023-02-28T03:18:50.348Z,5.93
2023-02-28T03:21:33.205Z,4.45
2023-02-28T03:24:22.824Z,6.35
2023-02-28T03:27:01.453Z,5.97
2023-02-28T03:29:36.050Z,4.65
2023-02-28T03:32:30.731Z,3.75
2023-02-28T03:35:08.839Z,4.63
2023-02-28T03:37:39.117Z,5.72
2023-02-28T03:40:09.788Z,11.32
2023-02-28T03:42:39.279Z,6.82
2023-02-28T03:45:12.882Z,5.07
2023-02-28T03:47:46.436Z,3.45
2023-02-28T03:50:30.524Z,5.47
2023-02-28T03:53:12.573Z,5.57
2023-02-28T03:55:54.928Z,4.55
2023-02-28T03:58:30.984Z,5.60
2023-02-28T04:01:08.813Z,4.32
2023-02-28T04:03:39.470Z,3.78
2023-02-28T04:06:09.296Z,3.42
2023-02-28T04:08:35.970Z,6.85
2023-02-28T04:11:07.923Z,5.07
2023-02-28T04:13:34.930Z,5.75
2023-02-28T04:16:01.734Z,5.03
2023-02-28T04:18:28.443Z,5.43
2023-02-28T04:20:55.079Z,4.63
2023-02-28T04:23:21.764Z,7.78
2023-02-28T04:25:48.442Z,4.82
2023-02-28T04:28:15.101Z,4.30
2023-02-28T04:30:41.819Z,4.40
2023-02-28T04:33:08.511Z,4.25
2023-02-28T04:35:35.237Z,6.70
2023-02-28T04:38:01.909Z,3.33
2023-02-28T04:40:28.646Z,5.40
2023-02-28T04:42:55.369Z,4.57
2023-02-28T04:45:22.076Z,4.57
2023-02-28T04:47:48.725Z,4.80
2023-02-28T04:50:15.673Z,4.20
2023-02-28T04:52:42.319Z,5.55
2023-02-28T04:55:09.184Z,4.55
2023-02-28T04:57:35.902Z,4.07
2023-02-28T05:00:07.254Z,2.42
2023-02-28T05:02:36.381Z,3.03
2023-02-28T05:05:03.370Z,5.50
2023-02-28T05:07:30.166Z,3.83
2023-02-28T05:09:56.838Z,3.53
2023-02-28T05:12:23.488Z,3.08
2023-02-28T05:14:50.197Z,4.82
2023-02-28T05:17:17.315Z,5.03
2023-02-28T05:19:44.236Z,3.05
2023-02-28T05:22:17.642Z,3.63
2023-02-28T05:24:44.405Z,3.92
2023-02-28T05:27:11.789Z,4.38
2023-02-28T05:29:42.685Z,2.42
2023-02-28T05:32:11.714Z,4.05
2023-02-28T05:34:42.192Z,3.33
2023-02-28T05:37:16.500Z,4.15
2023-02-28T05:39:44.560Z,3.78
2023-02-28T05:42:11.224Z,4.13
2023-02-28T05:44:37.933Z,3.55
2023-02-28T05:47:04.676Z,3.28
2023-02-28T05:49:31.428Z,4.00
2023-02-28T05:51:58.119Z,3.15
2023-02-28T05:54:24.746Z,6.28
2023-02-28T05:56:51.477Z,2.65
2023-02-28T05:59:18.098Z,2.55
2023-02-28T06:01:49.194Z,2.17
2023-02-28T06:04:31.186Z,4.90
2023-02-28T06:06:58.913Z,3.08
2023-02-28T06:09:25.972Z,2.40
2023-02-28T06:11:52.774Z,2.25
2023-02-28T06:14:20.415Z,2.42
2023-02-28T06:16:47.743Z,2.63
2023-02-28T06:19:14.626Z,2.25
2023-02-28T06:21:41.497Z,2.13
2023-02-28T06:24:08.827Z,2.83
2023-02-28T06:26:35.604Z,3.15
2023-02-28T06:29:02.302Z,4.10
2023-02-28T06:31:30.141Z,1.98
2023-02-28T06:33:57.881Z,4.78
2023-02-28T06:36:24.608Z,2.22
2023-02-28T06:38:55.525Z,1.77
2023-02-28T06:41:28.386Z,2.38
2023-02-28T06:43:55.874Z,3.05
2023-02-28T06:46:22.683Z,1.50
2023-02-28T06:48:49.795Z,3.83
2023-02-28T06:51:21.126Z,3.00
2023-02-28T06:53:47.887Z,3.05
2023-02-28T06:56:17.687Z,4.10
2023-02-28T06:58:49.304Z,2.15
2023-02-28T07:01:16.325Z,6.80
2023-02-28T07:03:43.044Z,2.92
2023-02-28T07:06:09.596Z,7.90
2023-02-28T07:08:36.915Z,3.88
2023-02-28T07:11:03.713Z,1.55
2023-02-28T07:13:30.232Z,7.32
2023-02-28T07:16:02.339Z,3.30
2023-02-28T07:18:28.888Z,3.00
2023-02-28T07:20:55.722Z,2.13
2023-02-28T07:23:23.155Z,2.08
2023-02-28T07:25:51.457Z,2.58
2023-02-28T07:28:17.937Z,2.17
2023-02-28T07:30:44.464Z,1.95
2023-02-28T07:33:11.218Z,3.38
2023-02-28T07:35:37.712Z,1.70
2023-02-28T07:38:04.649Z,3.22
2023-02-28T07:40:31.235Z,1.48
2023-02-28T07:43:00.354Z,1.42
2023-02-28T07:45:27.696Z,1.70
2023-02-28T07:47:54.274Z,5.00
2023-02-28T07:50:20.884Z,2.92
2023-02-28T07:52:47.687Z,2.72
2023-02-28T07:55:14.649Z,3.50
2023-02-28T07:57:41.741Z,2.83
2023-02-28T08:00:10.914Z,3.95
2023-02-28T08:02:37.622Z,2.83
2023-02-28T08:05:04.389Z,2.58
2023-02-28T08:07:30.875Z,4.28
2023-02-28T08:09:57.365Z,2.33
2023-02-28T08:12:23.909Z,3.80
2023-02-28T08:14:50.363Z,7.78
2023-02-28T08:17:17.036Z,3.55
2023-02-28T08:19:46.422Z,5.82
2023-02-28T08:22:13.146Z,5.70
2023-02-28T08:24:40.038Z,3.20
2023-02-28T08:27:06.503Z,2.85
2023-02-28T08:29:32.990Z,3.25
2023-02-28T08:31:59.969Z,3.78
2023-02-28T08:34:26.539Z,3.17
2023-02-28T08:36:54.089Z,3.17
2023-02-28T08:39:20.975Z,6.70
2023-02-28T08:41:51.088Z,5.90
2023-02-28T08:44:19.995Z,3.58
2023-02-28T08:46:46.483Z,3.95
2023-02-28T08:49:13.103Z,4.57
2023-02-28T08:52:08.620Z,5.38
2023-02-28T08:54:39.224Z,3.92
2023-02-28T08:57:05.704Z,5.60
2023-02-28T08:59:33.296Z,7.13
2023-02-28T09:02:00.070Z,4.75
2023-02-28T09:04:26.720Z,7.45
2023-02-28T09:06:53.380Z,3.40
2023-02-28T09:09:20.048Z,3.65
2023-02-28T09:11:46.692Z,2.85
2023-02-28T09:14:13.359Z,5.35
2023-02-28T09:16:40.441Z,3.45
2023-02-28T09:19:07.108Z,5.15
2023-02-28T09:21:33.763Z,4.60
2023-02-28T09:24:00.392Z,4.00
2023-02-28T09:26:34.765Z,2.28
2023-02-28T09:29:09.488Z,1.15
2023-02-28T09:31:36.314Z,1.33
2023-02-28T09:34:04.641Z,2.72
2023-02-28T09:36:43.603Z,1.50
2023-02-28T09:39:12.990Z,2.75
2023-02-28T09:41:52.727Z,0.82
2023-02-28T09:44:37.899Z,2.22
2023-02-28T09:47:13.915Z,1.27
2023-02-28T09:52:24.982Z,1.60
2023-02-28T09:54:51.675Z,2.72
2023-02-28T09:57:24.179Z,3.35
2023-02-28T10:00:11.107Z,2.35
2023-02-28T10:03:02.302Z,5.63
2023-02-28T10:05:34.111Z,2.42
2023-02-28T10:08:26.232Z,4.53
2023-02-28T10:10:58.168Z,3.20
2023-02-28T10:13:35.517Z,5.15
2023-02-28T10:16:31.809Z,8.20
2023-02-28T10:19:06.309Z,2.33
2023-02-28T10:21:39.508Z,3.03
2023-02-28T10:24:21.348Z,2.92
2023-02-28T10:26:49.153Z,1.30
2023-02-28T10:29:16.342Z,5.05
2023-02-28T10:31:43.447Z,4.68
2023-02-28T10:34:13.466Z,3.53
2023-02-28T10:36:45.630Z,2.85
2023-02-28T10:39:36.096Z,3.08
2023-02-28T10:42:02.724Z,1.80
2023-02-28T10:44:29.462Z,2.83
2023-02-28T10:46:57.502Z,2.13
2023-02-28T10:49:27.372Z,1.90
2023-02-28T10:52:00.513Z,2.00
2023-02-28T10:54:34.747Z,3.28
2023-02-28T10:57:20.601Z,2.60
2023-02-28T10:59:52.452Z,1.92
2023-02-28T11:02:41.905Z,2.67
2023-02-28T11:05:32.023Z,6.75
2023-02-28T11:08:19.077Z,2.10
2023-02-28T11:10:49.078Z,1.73
2023-02-28T11:13:21.844Z,1.80
2023-02-28T11:15:58.056Z,1.83
2023-02-28T11:18:54.685Z,1.67
2023-02-28T11:21:28.050Z,1.95
2023-02-28T11:24:17.325Z,3.05
2023-02-28T11:26:47.351Z,1.67
2023-02-28T11:29:29.408Z,2.92
2023-02-28T11:34:45.852Z,2.40
2023-02-28T11:37:16.562Z,1.77
2023-02-28T11:39:44.227Z,2.42
2023-02-28T11:42:36.567Z,2.67
2023-02-28T11:45:34.345Z,4.63
2023-02-28T11:48:11.575Z,4.43
2023-02-28T11:51:09.222Z,2.83
2023-02-28T11:53:54.121Z,3.25
2023-02-28T11:56:47.719Z,2.88
2023-02-28T11:59:47.411Z,2.03
2023-02-28T12:02:55.291Z,1.85
2023-02-28T12:05:44.808Z,2.22
2023-02-28T12:08:30.019Z,2.15
2023-02-28T12:11:24.838Z,2.13
2023-02-28T12:14:14.731Z,2.05
2023-02-28T12:17:15.511Z,2.17
2023-02-28T12:20:11.811Z,3.03
2023-02-28T12:22:53.270Z,2.10
2023-02-28T12:25:49.051Z,2.33
2023-02-28T12:28:21.374Z,5.90
2023-02-28T12:30:57.929Z,2.38
2023-02-28T12:33:30.593Z,1.92
2023-02-28T12:35:59.452Z,3.15
2023-02-28T12:38:48.421Z,2.25
2023-02-28T12:41:23.510Z,2.58
2023-02-28T12:44:01.384Z,1.65
2023-02-28T12:46:40.855Z,2.50
2023-02-28T12:49:17.538Z,3.85
2023-02-28T12:51:46.727Z,1.77
2023-02-28T12:54:29.798Z,2.15
2023-02-28T12:57:14.858Z,1.65
2023-02-28T12:59:58.017Z,2.00
2023-02-28T13:02:51.823Z,1.83
2023-02-28T13:05:40.938Z,2.80
2023-02-28T13:08:43.197Z,2.60
2023-02-28T13:11:25.215Z,4.50
2023-02-28T13:13:59.233Z,2.72
2023-02-28T13:16:26.311Z,6.18
2023-02-28T13:18:53.868Z,3.00
2023-02-28T13:21:24.605Z,2.03
2023-02-28T13:23:58.968Z,2.25
2023-02-28T13:26:39.006Z,2.30
2023-02-28T13:29:11.768Z,3.05
2023-02-28T13:32:06.774Z,2.45
2023-02-28T13:34:34.803Z,1.52
2023-02-28T13:37:24.065Z,2.28
2023-02-28T13:39:55.849Z,2.28
2023-02-28T13:42:31.709Z,1.90
2023-02-28T13:45:04.327Z,4.05
2023-02-28T13:47:41.303Z,2.75
2023-02-28T13:50:26.536Z,2.85
2023-02-28T13:53:14.346Z,1.30
2023-02-28T13:55:51.478Z,1.88
2023-02-28T13:58:32.825Z,1.77
2023-02-28T14:01:30.323Z,2.53
2023-02-28T14:04:39.045Z,2.90
2023-02-28T14:07:07.108Z,1.90
2023-02-28T14:09:41.550Z,1.40
2023-02-28T14:12:46.073Z,3.22
2023-02-28T14:15:34.415Z,3.38
2023-02-28T14:18:03.609Z,1.60
2023-02-28T14:20:34.465Z,1.70
2023-02-28T14:23:31.181Z,1.90
2023-02-28T14:26:19.789Z,5.00
2023-02-28T14:29:27.854Z,2.67
2023-02-28T14:32:51.528Z,2.42
2023-02-28T14:35:27.114Z,2.25
2023-02-28T14:37:54.709Z,1.65
2023-02-28T14:40:33.212Z,1.52
2023-02-28T14:43:04.457Z,7.45
2023-02-28T14:45:51.854Z,2.80
2023-02-28T14:48:54.802Z,3.15
2023-02-28T14:51:25.699Z,1.60
2023-02-28T14:53:58.765Z,1.98
2023-02-28T14:59:26.761Z,2.83
2023-02-28T15:02:08.306Z,2.30
2023-02-28T15:04:44.102Z,3.45
2023-02-28T15:07:15.556Z,4.88
2023-02-28T15:09:42.389Z,2.28
2023-02-28T15:12:15.321Z,2.63
2023-02-28T15:14:44.862Z,4.30
2023-02-28T15:17:23.174Z,3.08
2023-02-28T15:19:53.093Z,4.03
2023-02-28T15:22:30.247Z,2.97
2023-02-28T15:24:57.425Z,4.05
2023-02-28T15:27:28.261Z,4.55
2023-02-28T15:29:58.588Z,4.60
2023-02-28T15:32:31.392Z,5.15
2023-02-28T15:34:59.853Z,3.63
2023-02-28T15:37:34.187Z,2.88
2023-02-28T15:40:18.225Z,3.40
2023-02-28T15:43:07.700Z,2.20
2023-02-28T15:45:39.488Z,2.10
2023-02-28T15:48:15.315Z,1.83
2023-02-28T15:50:42.311Z,3.38
2023-02-28T15:53:22.719Z,2.95
2023-02-28T15:55:56.316Z,2.75
2023-02-28T15:58:24.888Z,4.78
2023-02-28T16:01:26.921Z,2.72
2023-02-28T16:03:56.776Z,2.75
2023-02-28T16:06:40.588Z,3.25
2023-02-28T16:09:10.775Z,3.75
2023-02-28T16:11:42.972Z,2.53
2023-02-28T16:14:19.606Z,3.42
2023-02-28T16:16:49.337Z,2.28
2023-02-28T16:21:42.518Z,2.13
2023-02-28T16:24:09.126Z,2.65
2023-02-28T16:26:38.238Z,1.50
2023-02-28T16:29:05.347Z,1.35
2023-02-28T16:31:36.411Z,2.88
2023-02-28T16:34:05.916Z,5.20
2023-02-28T16:36:32.491Z,1.15
2023-02-28T16:38:59.040Z,1.05
2023-02-28T16:41:27.609Z,1.77
2023-02-28T16:43:59.701Z,1.33
2023-02-28T16:46:35.382Z,3.15
2023-02-28T16:49:02.050Z,1.80
2023-02-28T16:51:29.025Z,1.63
2023-02-28T16:53:55.821Z,1.95
2023-02-28T16:56:25.694Z,7.55
2023-02-28T16:58:55.445Z,3.38
2023-02-28T17:01:22.800Z,2.10
2023-02-28T17:03:50.348Z,1.95
2023-02-28T17:06:25.664Z,2.60
2023-02-28T17:08:52.353Z,8.48
2023-02-28T17:11:19.677Z,6.53
2023-02-28T17:13:47.025Z,6.90
2023-02-28T17:16:29.153Z,2.55
2023-02-28T17:18:58.860Z,1.67
2023-02-28T17:21:25.366Z,1.52
2023-02-28T17:23:51.835Z,2.55
2023-02-28T17:26:25.268Z,1.00
2023-02-28T17:28:53.413Z,2.13
2023-02-28T17:31:20.078Z,2.70
2023-02-28T17:33:46.548Z,1.83
2023-02-28T17:36:24.099Z,1.67
2023-02-28T17:38:51.110Z,4.30
2023-02-28T17:41:17.602Z,3.00
2023-02-28T17:43:44.133Z,7.28
2023-02-28T17:46:22.552Z,11.77
2023-02-28T17:48:50.509Z,12.88
2023-02-28T17:51:18.215Z,18.67
2023-02-28T17:53:45.080Z,11.10
2023-02-28T17:56:20.651Z,14.95
2023-02-28T17:58:47.460Z,15.32
2023-02-28T18:01:14.029Z,16.13
2023-02-28T18:03:40.936Z,17.20
2023-02-28T18:06:12.952Z,12.07
2023-02-28T18:08:39.386Z,11.93
2023-02-28T18:11:05.905Z,6.95
2023-02-28T18:13:32.425Z,7.45
2023-02-28T18:15:58.953Z,6.53
2023-02-28T18:18:25.439Z,9.00
2023-02-28T18:20:53.110Z,4.25
2023-02-28T18:23:21.479Z,4.47
2023-02-28T18:25:48.255Z,6.15
2023-02-28T18:28:14.728Z,3.05
2023-02-28T18:30:41.190Z,2.42
2023-02-28T18:33:07.772Z,3.15
2023-02-28T18:35:37.396Z,3.03
2023-02-28T18:38:24.269Z,6.25
2023-02-28T18:40:56.484Z,3.33
2023-02-28T18:43:23.122Z,2.33
2023-02-28T18:45:50.875Z,4.20
2023-02-28T18:48:19.510Z,5.50
2023-02-28T18:50:52.546Z,3.55
2023-02-28T18:53:19.264Z,5.53
2023-02-28T18:55:45.888Z,2.33
2023-02-28T18:58:12.780Z,4.22
2023-02-28T19:00:39.582Z,3.60
2023-02-28T19:03:06.287Z,3.20
2023-02-28T19:05:34.448Z,3.10
2023-02-28T19:08:02.098Z,7.90
2023-02-28T19:10:28.747Z,3.70
2023-02-28T19:12:55.648Z,5.07
2023-02-28T19:15:22.784Z,4.40
2023-02-28T19:17:49.424Z,3.45
2023-02-28T19:20:16.525Z,4.03
2023-02-28T19:22:44.129Z,4.22
2023-02-28T19:25:11.051Z,4.97
2023-02-28T19:27:37.761Z,9.93
2023-02-28T19:30:06.260Z,3.88
2023-02-28T19:32:33.502Z,5.32
2023-02-28T19:35:00.263Z,5.70
2023-02-28T19:37:27.036Z,4.53
2023-02-28T19:39:56.799Z,2.75
2023-02-28T19:42:23.887Z,3.97
2023-02-28T19:44:50.574Z,3.97
2023-02-28T19:47:17.202Z,3.33
2023-02-28T19:49:43.876Z,5.07
2023-02-28T19:52:13.516Z,4.55
2023-02-28T19:54:42.241Z,3.22
2023-02-28T19:57:08.898Z,3.80
2023-02-28T19:59:39.805Z,2.47
2023-02-28T20:02:13.653Z,2.65
2023-02-28T20:04:40.495Z,2.55
2023-02-28T20:07:07.301Z,4.13
2023-02-28T20:09:33.983Z,2.22
2023-02-28T20:12:01.613Z,3.95
2023-02-28T20:14:28.328Z,2.05
2023-02-28T20:16:57.147Z,2.85
2023-02-28T20:19:24.919Z,3.90
2023-02-28T20:21:51.812Z,3.25
2023-02-28T20:24:18.632Z,2.75
2023-02-28T20:26:46.755Z,2.60
2023-02-28T20:29:13.708Z,2.45
2023-02-28T20:31:40.602Z,4.22
2023-02-28T20:34:07.234Z,2.75
2023-02-28T20:36:33.918Z,3.22
2023-02-28T20:39:00.748Z,4.43
2023-02-28T20:41:27.551Z,3.45
2023-02-28T20:43:58.768Z,2.35
2023-02-28T20:46:26.174Z,3.83
2023-02-28T20:48:53.131Z,4.05
2023-02-28T20:51:20.576Z,4.28
2023-02-28T20:53:47.360Z,7.82
2023-02-28T20:56:16.974Z,6.43
2023-02-28T20:58:45.621Z,6.63
2023-02-28T21:01:18.415Z,3.58
2023-02-28T21:03:50.102Z,3.25
2023-02-28T21:06:19.503Z,7.75
2023-02-28T21:08:46.291Z,5.40
2023-02-28T21:11:24.337Z,5.93
2023-02-28T21:13:51.828Z,4.35
2023-02-28T21:16:21.525Z,3.75
2023-02-28T21:18:49.048Z,3.72
2023-02-28T21:21:19.409Z,3.22
2023-02-28T21:23:49.094Z,3.30
2023-02-28T21:26:21.164Z,4.00
2023-02-28T21:28:51.666Z,4.55
2023-02-28T21:31:19.489Z,5.88
2023-02-28T21:33:47.202Z,3.53
2023-02-28T21:36:19.555Z,3.58
2023-02-28T21:38:47.596Z,3.20
2023-02-28T21:41:19.990Z,1.83
2023-02-28T21:43:47.355Z,3.75
2023-02-28T21:46:23.000Z,2.55
2023-02-28T21:48:51.040Z,2.70
2023-02-28T21:51:20.340Z,2.65
2023-02-28T21:53:48.189Z,3.00
2023-02-28T21:56:23.534Z,2.35
2023-02-28T21:58:51.050Z,3.78
2023-02-28T22:01:20.876Z,4.43
2023-02-28T22:03:49.187Z,2.67
2023-02-28T22:06:20.632Z,3.15
2023-02-28T22:08:51.570Z,1.85
2023-02-28T22:11:18.891Z,3.60
2023-02-28T22:13:46.159Z,3.72
2023-02-28T22:16:16.062Z,6.75
2023-02-28T22:21:12.591Z,2.72
2023-02-28T22:23:41.295Z,3.50
2023-02-28T22:26:13.166Z,3.13
2023-02-28T22:28:40.380Z,2.03
2023-02-28T22:31:26.619Z,3.13
2023-02-28T22:33:56.436Z,2.60
2023-02-28T22:36:23.267Z,2.35
2023-02-28T22:38:51.261Z,2.28
2023-02-28T22:41:20.972Z,2.83
2023-02-28T22:43:54.024Z,2.45
2023-02-28T22:46:21.985Z,2.58
2023-02-28T22:48:48.941Z,4.30
2023-02-28T22:51:21.298Z,2.38
2023-02-28T22:53:49.727Z,2.97
2023-02-28T22:56:18.864Z,1.77
2023-02-28T22:58:50.468Z,1.98
2023-02-28T23:01:18.802Z,2.47
2023-02-28T23:03:45.529Z,2.33
2023-02-28T23:06:20.206Z,1.45
2023-02-28T23:08:47.375Z,4.63
2023-02-28T23:11:23.662Z,1.90
2023-02-28T23:16:36.814Z,3.25
2023-02-28T23:19:06.853Z,2.35
2023-02-28T23:21:34.221Z,3.22
2023-02-28T23:24:02.795Z,2.78
2023-02-28T23:26:31.458Z,2.40
2023-02-28T23:28:59.212Z,3.25
2023-02-28T23:31:25.923Z,2.92
2023-02-28T23:33:52.653Z,3.85
2023-02-28T23:36:19.350Z,2.33
2023-02-28T23:38:48.266Z,2.15
2023-02-28T23:41:15.891Z,3.20
2023-02-28T23:43:42.744Z,1.92
2023-02-28T23:46:10.581Z,3.72
2023-02-28T23:48:38.186Z,1.80
2023-02-28T23:51:09.828Z,2.97
2023-02-28T23:53:38.605Z,3.58
2023-02-28T23:56:06.885Z,2.75
2023-02-28T23:58:34.369Z,2.72
